Main page
METAR-TAF:

METAR-TAF

Airports :

Berlin, Germany

Berlin Tegel Airport

latitude: 52-34N, longitude: 013-19E, elevation: 37 m

Current weather observation

The report was made 32 minutes ago, at 08:20 UTC
Wind 10 kt from the East, varying between East/Northeast and East/Southeast
Temperature 9°C
Humidity 61%
Pressure 1022 hPa
Visibility 10 km or more
Few clouds at a height of 2500 ft

METAR: EDDT 300820Z 09010KT 060V120 9999 FEW025 09/02 Q1022 NOSIG

Time: 10:52 (08:52 UTC)

Forecast

The report was made 3 hours and 52 minutes ago, at 05:00 UTC
Forecast valid from 30 at 06 UTC to 01 at 06 UTC
Wind 7 kt from the East/Northeast
Visibility 10 km or more
no clouds below 1500 m and no cumulonimbus
Becoming
from 30 at 07 UTC to 30 at 09 UTC
Wind 12 kt from the East
Temporary
from 30 at 12 UTC to 30 at 18 UTC
Wind 15 kt from the East with gusts up to 25 kt

TAF: EDDT 300500Z 3006/0106 07007KT CAVOK BECMG 3007/3009 09012KT TEMPO 3012/3018 10015G25KT

Weather observations and forecasts of more than 4000 airports (METAR and TAF reports).

The available stations are represented by yellow and red dots on the map.

Hover mouse over dot to see the name of the station.

Then click to see weather observations and forecasts.

To change the map : click on the green buttons with a black cross to zoom in, on the green button with a dash to zoom out, or on the green arrows for adjacent maps.


METAR-TAF: